• Join FlightAware (Why Join?)
  • Login
  • US Flag 
01:33AM EDT


 

Airport Tracker/Info


-or-


 

Live Flight TrackerFlight Track Log ✈ N789EX ✈ 29-Mar-2014 ✈ KBFI - KBFI

Flight Track Log - Related Links

Times and Time Zones

All times are in EDT time to prevent confusion due to time zone crossing. See the N789EX flight status page for this flight to view local times or setup timezone preferences in your user account.

Time Position Orientation Groundspeed Altitude Reporting Facility
EDT Latitude Longitude Course Direction KTS MPH feet Rate Location/Type
11:54AM 47.5080 -122.2820 144° Southeast 179 206 1,400  Level FlightAware ADS-B
11:54AM 47.4999 -122.2720 139° Southeast 193 222 1,800 2,040 Climbing FlightAware ADS-B
11:54AM 47.4899 -122.2590 138° Southeast 205 236 2,300 1,800 Climbing FlightAware ADS-B
11:54AM 47.4835 -122.2510 139° Southeast 215 247 2,500 1,740 Climbing FlightAware ADS-B
11:55AM 47.4775 -122.2430 140° Southeast 225 259 2,800 2,280 Climbing FlightAware ADS-B
11:55AM 47.4667 -122.2300 140° Southeast 235 270 3,300 2,100 Climbing FlightAware ADS-B
11:55AM 47.4540 -122.2140 139° Southeast 242 278 3,800 1,560 Climbing FlightAware ADS-B
11:55AM 47.4413 -122.1980 138° Southeast 244 281 4,100 960 Climbing FlightAware ADS-B
11:55AM 47.4285 -122.1810 139° Southeast 242 278 4,300 1,260 Climbing FlightAware ADS-B
11:56AM 47.4219 -122.1730 140° Southeast 241 277 4,600 1,980 Climbing FlightAware ADS-B
11:56AM 47.4186 -122.1690 144° Southeast 240 276 4,700 2,520 Climbing FlightAware ADS-B
11:56AM 47.4154 -122.1660 149° Southeast 238 274 4,900 3,960 Climbing FlightAware ADS-B
11:56AM 47.4120 -122.1640 156° South 235 270 5,100 2,520 Climbing FlightAware ADS-B
11:56AM 47.4088 -122.1620 161° South 233 268 5,200 2,220 Climbing FlightAware ADS-B
11:56AM 47.4044 -122.1600 165° South 233 268 5,400 2,520 Climbing FlightAware ADS-B
11:56AM 47.4011 -122.1590 168° South 232 267 5,500 1,680 Climbing FlightAware ADS-B
11:56AM 47.3970 -122.1580 173° South 232 267 5,600 1,680 Climbing FlightAware ADS-B
11:56AM 47.3932 -122.1580 181° South 231 266 5,700 2,520 Climbing FlightAware ADS-B
11:56AM 47.3890 -122.1580 188° South 229 264 5,900 3,000 Climbing FlightAware ADS-B
11:56AM 47.3857 -122.1600 195° South 228 262 6,100 3,000 Climbing FlightAware ADS-B
11:56AM 47.3811 -122.1620 200° South 229 264 6,300 2,520 Climbing FlightAware ADS-B
11:56AM 47.3711 -122.1680 205° Southwest 230 265 6,700 2,760 Climbing FlightAware ADS-B
11:57AM 47.3562 -122.1790 206° Southwest 234 269 7,500 2,880 Climbing FlightAware ADS-B
11:57AM 47.3413 -122.1890 206° Southwest 236 272 8,200 2,760 Climbing FlightAware ADS-B
11:57AM 47.3259 -122.2000 204° Southwest 240 276 8,900 2,580 Climbing FlightAware ADS-B
11:57AM 47.3185 -122.2050 205° Southwest 244 281 9,200 2,700 Climbing FlightAware ADS-B
11:57AM 47.3147 -122.2080 208° Southwest 245 282 9,400 2,520 Climbing FlightAware ADS-B
11:57AM 47.3114 -122.2110 213° Southwest 246 283 9,500 2,220 Climbing FlightAware ADS-B
11:58AM 47.3078 -122.2150 217° Southwest 246 283 9,700 2,400 Climbing FlightAware ADS-B
11:58AM 47.3025 -122.2210 221° Southwest 248 285 9,900 2,520 Climbing FlightAware ADS-B
11:58AM 47.2899 -122.2390 226° Southwest 250 288 10,600 3,000 Climbing FlightAware ADS-B
11:58AM 47.2813 -122.2530 228° Southwest 250 288 11,200 3,180 Climbing FlightAware ADS-B
11:58AM 47.2780 -122.2590 233° Southwest 251 289 11,400 2,220 Climbing FlightAware ADS-B
11:58AM 47.2758 -122.2640 239° Southwest 252 290 11,500 2,220 Climbing FlightAware ADS-B
11:58AM 47.2739 -122.2690 247° West 254 292 11,700 2,220 Climbing FlightAware ADS-B
11:58AM 47.2724 -122.2770 255° West 255 293 11,800 1,980 Climbing FlightAware ADS-B
11:58AM 47.2716 -122.2850 263° West 258 297 12,000 3,000 Climbing FlightAware ADS-B
11:59AM 47.2715 -122.3142 273° West 260 299 12,900 2,820 Climbing FlightAware ADS-B (CYVR)
11:59AM 47.2717 -122.3230 273° West 260 299 13,000 2,460 Climbing FlightAware ADS-B
11:59AM 47.2740 -122.3705 274° West 264 304 14,200 2,460 Climbing FlightAware ADS-B (CYVR)
11:59AM 47.2744 -122.3770 274° West 264 304 14,300 1,560 Climbing FlightAware ADS-B
12:00PM 47.2768 -122.4320 273° West 265 305 15,100 1,260 Climbing FlightAware ADS-B
12:00PM 47.2776 -122.4520 273° West 286 329 15,200 180 Climbing FlightAware ADS-B (CYWH)
12:00PM 47.2788 -122.4910 272° West 311 358 15,200  Level FlightAware ADS-B
12:01PM 47.2797 -122.5273 271° West 348 400 15,200  Level FlightAware ADS-B (CYVR)
12:01PM 47.2802 -122.5600 271° West 353 406 15,200  Level FlightAware ADS-B
12:01PM 47.2814 -122.6300 272° West 374 430 15,200  Level FlightAware ADS-B (CYWH)
12:01PM 47.2819 -122.6510 272° West 375 432 15,200 120 Level FlightAware ADS-B
12:02PM 47.2835 -122.7290 272° West 377 434 15,300 420 Climbing FlightAware ADS-B
12:02PM 47.2838 -122.7461 272° West 377 434 15,500 2,100 Climbing FlightAware ADS-B (CYWH)
12:02PM 47.2851 -122.8100 272° West 379 436 16,400 2,400 Climbing FlightAware ADS-B
12:03PM 47.2861 -122.8502 272° West 381 438 17,100 2,280 Climbing FlightAware ADS-B (CYWH)
12:03PM 47.2862 -122.8550 272° West 381 438 17,100 2,220 Level FlightAware ADS-B
12:03PM 47.2860 -122.8700 267° West 380 437 17,400 2,160 Climbing FlightAware ADS-B
12:03PM 47.2849 -122.8830 261° West 377 434 17,500 2,100 Climbing FlightAware ADS-B
12:03PM 47.2811 -122.9060 254° West 376 433 17,900 2,220 Climbing FlightAware ADS-B
12:03PM 47.2774 -122.9231 251° West 376 433 18,100 2,400 Climbing FlightAware ADS-B (CYWH)
12:03PM 47.2754 -122.9320 251° West 376 433 18,300 2,400 Climbing FlightAware ADS-B
12:04PM 47.2586 -122.9952 248° West 377 434 19,300 2,280 Climbing FlightAware ADS-B (CYWH)
12:04PM 47.2559 -123.0050 248° West 378 435 19,500 2,100 Climbing FlightAware ADS-B
12:04PM 47.2362 -123.0770 248° West 381 438 20,500 1,920 Climbing FlightAware ADS-B
12:05PM 47.2192 -123.1399 249° West 387 445 21,300 1,800 Climbing FlightAware ADS-B (CYWH)
12:05PM 47.2165 -123.1500 249° West 388 447 21,400 1,740 Climbing FlightAware ADS-B
12:05PM 47.2001 -123.2124 249° West 392 451 22,200 1,800 Climbing FlightAware ADS-B (CYWH)
12:05PM 47.1970 -123.2240 249° West 393 452 22,300 1,560 Climbing FlightAware ADS-B
12:06PM 47.1796 -123.2903 249° West 397 457 23,000 1,560 Climbing FlightAware ADS-B (CYWH)
12:06PM 47.1771 -123.3000 249° West 398 458 23,100 1,560 Climbing FlightAware ADS-B
12:06PM 47.1600 -123.3644 249° West 402 463 23,800 1,500 Climbing FlightAware ADS-B (CYWH)
12:06PM 47.1570 -123.3760 249° West 401 461 23,900 1,800 Climbing FlightAware ADS-B
12:07PM 47.1395 -123.4412 249° West 404 465 24,700 1,800 Climbing FlightAware ADS-B (CYWH)
12:07PM 47.1367 -123.4520 249° West 404 465 24,800 1,680 Climbing FlightAware ADS-B
12:07PM 47.1194 -123.5167 249° West 405 466 25,600 1,800 Climbing FlightAware ADS-B (CYVR)
12:07PM 47.1158 -123.5300 249° West 405 466 25,700 1,380 Climbing FlightAware ADS-B
12:08PM 47.0969 -123.6002 249° West 410 472 26,300 1,260 Climbing FlightAware ADS-B (CYVR)
12:08PM 47.0937 -123.6120 249° West 409 471 26,400 1,380 Climbing FlightAware ADS-B
12:08PM 47.0757 -123.6784 248° West 412 474 27,000 1,380 Climbing FlightAware ADS-B (CYVR)
12:08PM 47.0725 -123.6900 248° West 413 475 27,100 960 Climbing FlightAware ADS-B
12:09PM 47.0548 -123.7553 248° West 423 487 27,500 720 Climbing FlightAware ADS-B (CYVR)
12:09PM 47.0510 -123.7700 248° West 424 488 27,500 1,020 Level FlightAware ADS-B
12:09PM 47.0292 -123.8500 248° West 430 495 28,100 1,140 Climbing FlightAware ADS-B
12:09PM 47.0284 -123.8527 248° West 430 495 28,100 1,200 Level FlightAware ADS-B (CYVR)
12:10PM 47.0065 -123.9330 248° West 433 498 28,700 1,200 Climbing FlightAware ADS-B
12:10PM 47.0032 -123.9454 248° West 433 498 28,800 1,080 Climbing FlightAware ADS-B (CYVR)
12:10PM 46.9905 -123.9920 249° West 435 501 29,100 840 Climbing FlightAware ADS-B
12:10PM 46.9842 -124.0230 258° West 441 507 29,200 240 Climbing FlightAware ADS-B
12:11PM 46.9816 -124.0560 267° West 449 517 29,200 480 Level FlightAware ADS-B
12:11PM 46.9817 -124.0528 263° West 447 514 29,300 1,500 Climbing FlightAware ADS-B (KSLE)
12:11PM 46.9821 -124.0800 274° West 454 522 29,400 840 Climbing FlightAware ADS-B
12:11PM 46.9842 -124.1020 279° West 458 527 29,500 1,380 Climbing FlightAware ADS-B
12:11PM 46.9872 -124.1200 285° West 462 532 29,700 1,800 Climbing FlightAware ADS-B
12:11PM 46.9924 -124.1420 291° West 466 536 29,900 840 Climbing FlightAware ADS-B
12:11PM 46.9983 -124.1600 297° West 470 541 29,900 480 Level FlightAware ADS-B
12:11PM 47.0037 -124.1740 301° West 474 545 30,000 960 Climbing FlightAware ADS-B
12:11PM 47.0048 -124.1767 299° West 473 544 30,000  Level FlightAware ADS-B (KSLE)
12:11PM 47.0125 -124.1920 307° West 479 551 30,000  Level FlightAware ADS-B
12:11PM 47.0198 -124.2050 312° West 482 555 30,000  Level FlightAware ADS-B
12:11PM 47.0273 -124.2160 317° Northwest 485 558 30,000  Level FlightAware ADS-B
12:12PM 47.0310 -124.2207 321° Northwest 489 563 30,000  Level FlightAware ADS-B (KSLE)
12:12PM 47.0381 -124.2290 322° Northwest 490 564 30,000  Level FlightAware ADS-B
12:12PM 47.0966 -124.2820 329° Northwest 494 568 30,000  Level FlightAware ADS-B
12:12PM 47.0911 -124.2771 329° Northwest 494 568 30,000 480 Level FlightAware ADS-B (KSLE)
12:12PM 47.1207 -124.3040 327° Northwest 494 568 30,100 840 Climbing FlightAware ADS-B
12:12PM 47.1275 -124.3100 325° Northwest 492 566 30,100 1,080 Level FlightAware ADS-B
12:12PM 47.1407 -124.3260 318° Northwest 486 559 30,300 1,320 Climbing FlightAware ADS-B
12:13PM 47.0911 -124.2771 311° West 479 551 30,300 1,980 Level FlightAware ADS-B (KSLE)
12:13PM 47.1538 -124.3480 308° West 475 547 30,600 2,220 Climbing FlightAware ADS-B
12:13PM 47.1634 -124.3720 297° West 462 532 30,900 1,620 Climbing FlightAware ADS-B
12:13PM 47.1699 -124.3960 289° West 455 524 31,100 1,380 Climbing FlightAware ADS-B
12:13PM 47.1751 -124.4220 285° West 453 521 31,300 1,500 Climbing FlightAware ADS-B
12:13PM 47.1767 -124.4320 282° West 452 520 31,400 1,080 Climbing FlightAware ADS-B
12:13PM 47.1786 -124.4516 274° West 447 514 31,500 660 Climbing FlightAware ADS-B (CYVR)
12:13PM 47.1789 -124.4610 273° West 446 513 31,500 720 Level FlightAware ADS-B
12:13PM 47.1784 -124.4780 265° West 443 510 31,600 600 Climbing FlightAware ADS-B
12:13PM 47.1772 -124.4890 260° West 441 507 31,600 540 Level FlightAware ADS-B
12:14PM 47.1761 -124.4969 254° West 439 505 31,700 660 Climbing FlightAware ADS-B (CYVR)
12:14PM 47.1669 -124.5400 250° West 441 507 31,800 1,020 Climbing FlightAware ADS-B
12:14PM 47.1455 -124.6250 250° West 439 505 32,400 960 Climbing FlightAware ADS-B
12:15PM 47.1246 -124.7090 250° West 442 509 32,800 960 Climbing FlightAware ADS-B
12:15PM 47.1036 -124.7940 250° West 442 509 33,400 1,020 Climbing FlightAware ADS-B
12:15PM 47.1308 -124.6841 250° West 442 509 33,500 960 Climbing FlightAware ADS-B (KSLE)
12:16PM 47.0818 -124.8800 249° West 440 506 33,900 780 Climbing FlightAware ADS-B
12:16PM 47.0603 -124.9630 249° West 443 510 34,200 540 Climbing FlightAware ADS-B
12:17PM 47.0370 -125.0550 250° West 449 517 34,500 720 Climbing FlightAware ADS-B
12:17PM 47.0185 -125.1260 248° West 448 516 34,900 780 Climbing FlightAware ADS-B
12:17PM 47.0889 -124.8527 247° West 447 514 34,900 420 Level FlightAware ADS-B (CYVR)
12:17PM 47.0056 -125.1630 238° Southwest 446 513 35,000 420 Climbing FlightAware ADS-B
12:18PM 47.0000 -125.1740 231° Southwest 445 512 35,000  Level FlightAware ADS-B
12:18PM 46.9911 -125.1870 224° Southwest 444 511 35,000  Level FlightAware ADS-B
12:18PM 46.9804 -125.1990 216° Southwest 444 511 35,000  Level FlightAware ADS-B
12:18PM 46.9749 -125.2040 212° Southwest 444 511 35,000  Level FlightAware ADS-B
12:18PM 46.9182 -125.2460 205° Southwest 445 512 35,000  Level FlightAware ADS-B
12:19PM 46.8609 -125.2860 206° Southwest 448 516 35,000  Level FlightAware ADS-B
12:19PM 47.1308 -124.6841 206° Southwest 448 516 35,000  Level FlightAware ADS-B (KSLE)
12:19PM 46.8032 -125.3270 206° Southwest 448 516 35,000  Level FlightAware ADS-B
12:20PM 46.7554 -125.3730 227° Southwest 442 509 35,000  Level FlightAware ADS-B
12:20PM 46.7489 -125.3860 234° Southwest 441 507 35,000  Level FlightAware ADS-B
12:20PM 46.7425 -125.4020 242° Southwest 442 509 35,000  Level FlightAware ADS-B
12:20PM 46.7356 -125.4340 258° West 445 512 35,000  Level FlightAware ADS-B
12:20PM 46.7341 -125.4780 271° West 450 518 35,000  Level FlightAware ADS-B
12:21PM 46.7382 -125.5720 274° West 452 520 35,000 -840 Level FlightAware ADS-B
12:21PM 46.7419 -125.6640 273° West 439 505 34,200 -1,800 Descending FlightAware ADS-B
12:21PM 47.0889 -124.8527 273° West 439 505 34,100 -6,720 Descending FlightAware ADS-B (CYVR)
12:22PM 46.7516 -125.7410 288° West 449 517 31,200 -6,480 Descending FlightAware ADS-B
12:22PM 46.7678 -125.7790 305° West 460 529 29,700 -4,980 Descending FlightAware ADS-B
12:23PM 46.8109 -125.8540 310° West 441 507 27,300 -4,080 Descending FlightAware ADS-B
12:24PM 46.8881 -125.9890 309° West 419 482 23,400 -2,340 Descending FlightAware ADS-B
12:25PM 46.9364 -126.0786 309° West 422 486 23,000 -240 Descending Seattle Center
12:26PM 47.0153 -126.2183 310° West 435 501 23,000 -300 Level Seattle Center
12:27PM 47.0761 -126.3811 299° West 465 535 22,400 -300 Descending Seattle Center
12:28PM 46.9872 -126.5003 222° Southwest 441 507 22,500  Climbing Seattle Center
12:29PM 46.8989 -126.6214 223° Southwest 440 506 22,500 -240 Level Seattle Center
12:30PM 46.9672 -126.7481 308° West 472 543 22,100 240 Descending Seattle Center
12:31PM 47.0931 -126.7953 346° North 484 557 23,000 660 Climbing Seattle Center
12:32PM 47.1772 -126.6050 57° Northeast 506 582 23,500 480 Climbing Seattle Center
12:33PM 47.1214 -126.4364 116° Southeast 494 568 24,000 240 Climbing Seattle Center
12:34PM 46.9939 -126.4086 172° South 474 545 24,000 -1,140 Level Seattle Center
12:35PM 46.8650 -126.3928 175° South 470 541 21,800 -2,820 Descending Seattle Center
12:36PM 46.8472 -126.5231 259° West 471 542 18,400 -840 Descending Seattle Center
12:37PM 46.8964 -126.6644 297° West 413 475 20,200 1,740 Climbing Seattle Center
12:38PM 47.0139 -126.6569 North 448 516 22,000 1,740 Climbing Seattle Center
12:39PM 47.1319 -126.5800 24° Northeast 462 532 23,800 1,680 Climbing Seattle Center
12:40PM 47.2533 -126.5039 23° Northeast 469 540 25,400 1,380 Climbing Seattle Center
12:41PM 47.3783 -126.4233 24° Northeast 484 557 26,700 540 Climbing Seattle Center
12:46PM 46.9130 -126.3170 198° South 494 568 29,000 180 Climbing FlightAware ADS-B
12:47PM 46.8454 -126.3500 198° South 486 559 27,900 -3,780 Descending FlightAware ADS-B
12:48PM 46.8386 -126.4953 198° South 528 608 22,400 -1,740 Descending Seattle Center
12:49PM 46.9331 -126.6067 321° Northwest 449 517 24,100 1,680 Climbing Seattle Center
12:50PM 47.0264 -126.7219 320° Northwest 442 509 25,800 1,380 Climbing Seattle Center
12:51PM 47.1406 -126.7914 338° Northwest 465 535 26,900 1,080 Climbing Seattle Center
12:52PM 47.2308 -126.6508 47° Northeast 497 572 28,000 1,020 Climbing Seattle Center
12:53PM 47.2258 -126.4519 92° East 508 585 29,000 480 Climbing Seattle Center
12:54PM 47.1092 -126.3881 160° South 480 552 29,000  Level Seattle Center
12:55PM 46.9736 -126.4089 186° South 486 559 29,000  Level Seattle Center
12:56PM 46.8369 -126.4292 186° South 492 566 29,100 -1,020 Climbing Seattle Center
12:57PM 46.7000 -126.4478 185° South 493 567 27,000 -3,060 Descending Seattle Center
12:58PM 46.6061 -126.5375 213° Southwest 488 562 23,000 -1,620 Descending Seattle Center
12:59PM 46.5992 -126.7075 267° West 437 503 23,800 960 Climbing Seattle Center
01:00PM 46.5961 -126.8908 269° West 447 514 25,000 1,500 Climbing Seattle Center
01:01PM 46.6803 -127.0394 310° West 478 550 26,900 1,440 Climbing Seattle Center
01:02PM 46.8114 -127.0353 North 501 577 28,000 420 Climbing Seattle Center
01:03PM 46.9233 -126.9167 36° Northeast 504 580 27,800 -2,220 Descending Seattle Center
01:04PM 47.0450 -126.7925 35° Northeast 448 516 23,600 -2,400 Descending Seattle Center
01:05PM 47.1444 -126.6903 35° Northeast 437 503 23,000 -540 Descending Seattle Center
01:06PM 47.1761 -126.5497 72° East 473 544 22,600 -120 Descending Seattle Center
01:07PM 47.1225 -126.4028 118° Southeast 425 489 22,800 120 Climbing Seattle Center
01:08PM 47.0667 -126.2494 118° Southeast 425 489 22,900  Climbing Seattle Center
01:09PM 46.9681 -126.2011 162° South 413 475 22,800 -240 Descending Seattle Center
01:10PM 46.8603 -126.1947 178° South 392 451 22,500 -1,980 Descending Seattle Center
01:11PM 46.8947 -126.3075 294° West 437 503 18,800 -1,500 Descending Seattle Center
01:12PM 46.9822 -126.4042 323° Northwest 402 463 19,500 1,140 Climbing Seattle Center
01:13PM 47.0783 -126.5089 323° Northwest 423 487 21,200 240 Climbing Seattle Center
01:14PM 47.1892 -126.5644 341° North 444 511 20,000 -2,220 Descending Seattle Center
01:15PM 47.2811 -126.4486 41° Northeast 443 510 16,800 -1,980 Descending Seattle Center
01:16PM 47.3606 -126.3069 50° Northeast 446 513 16,000 -1,620 Descending Seattle Center
01:17PM 47.3239 -126.1981 116° Southeast 455 524 13,600 -300 Descending Seattle Center
01:18PM 47.2186 -126.1808 174° South 389 448 15,500 1,140 Climbing Seattle Center
01:19PM 47.0850 -126.1614 174° South 397 457 16,000  Climbing Seattle Center
01:20PM 46.9806 -126.1775 186° South 410 472 15,600 -120 Descending Seattle Center
01:21PM 47.0225 -126.3317 292° West 405 466 15,800 300 Climbing Seattle Center
01:22PM 47.0658 -126.4808 293° West 398 458 16,300 60 Climbing Seattle Center
01:23PM 47.1125 -126.6347 294° West 408 470 16,000 -540 Descending Seattle Center
01:24PM 47.1931 -126.6989 332° Northwest 450 518 15,300 -1,320 Descending Seattle Center
01:25PM 47.2397 -126.5258 68° East 458 527 13,400 -180 Descending Seattle Center
01:26PM 47.2328 -126.3617 94° East 440 506 15,000 1,260 Climbing Seattle Center
01:27PM 47.1244 -126.3206 166° South 413 475 16,000 2,160 Climbing Seattle Center
01:28PM 47.0153 -126.3058 175° South 401 461 19,400 3,060 Climbing Seattle Center
01:29PM 46.9092 -126.2942 176° South 389 448 22,200 2,520 Climbing Seattle Center
01:30PM 46.8194 -126.3689 210° Southwest 380 437 24,600 1,500 Climbing Seattle Center
01:36PM 47.2900 -126.6027 359° North 464 534 32,800 1,200 Climbing FlightAware ADS-B (CYVR)
01:39PM 47.6178 -126.4330 67° East 483 556 35,200 840 Climbing FlightAware ADS-B
01:40PM 47.6385 -126.3479 80° East 481 554 35,600 720 Climbing FlightAware ADS-B (CYVR)
01:40PM 47.6405 -126.3300 77° East 482 555 35,600 720 Level FlightAware ADS-B
01:40PM 47.6415 -126.3110 87° East 479 551 35,700 780 Climbing FlightAware ADS-B
01:40PM 47.6405 -126.2120 92° East 478 550 36,100 660 Climbing FlightAware ADS-B
01:41PM 47.6382 -126.1089 92° East 477 549 36,400 660 Climbing FlightAware ADS-B (CYVR)
01:41PM 47.6364 -126.0070 91° East 476 548 36,800 420 Climbing FlightAware ADS-B
01:42PM 47.6346 -125.9260 94° East 481 554 36,800  Level FlightAware ADS-B
01:42PM 47.6334 -125.9104 97° East 480 552 36,800  Level FlightAware ADS-B (CYVR)
01:42PM 47.6310 -125.8920 103° East 478 550 36,800  Level FlightAware ADS-B
01:42PM 47.6252 -125.8670 112° Southeast 475 547 36,800  Level FlightAware ADS-B
01:42PM 47.6154 -125.8420 123° Southeast 470 541 36,800  Level FlightAware ADS-B
01:42PM 47.6060 -125.8260 132° Southeast 465 535 36,800  Level FlightAware ADS-B
01:42PM 47.5995 -125.8170 138° Southeast 462 532 36,800  Level FlightAware ADS-B
01:42PM 47.5982 -125.8149 144° Southeast 459 528 36,800 -720 Level FlightAware ADS-B (CYVR)
01:43PM 47.5849 -125.8020 149° Southeast 456 525 36,700 -600 Descending FlightAware ADS-B
01:43PM 47.5735 -125.7930 155° Southeast 455 524 36,700  Level FlightAware ADS-B
01:43PM 47.5547 -125.7828 160° South 454 522 36,700  Level FlightAware ADS-B (CYVR)
01:43PM 47.5487 -125.7800 163° South 453 521 36,700 420 Level FlightAware ADS-B
01:43PM 47.5264 -125.7730 171° South 448 516 36,800 300 Climbing FlightAware ADS-B
01:43PM 47.5124 -125.7711 175° South 447 514 36,800 180 Level FlightAware ADS-B (CYVR)
01:44PM 47.4628 -125.7680 178° South 448 516 36,900 300 Climbing FlightAware ADS-B
01:44PM 47.3996 -125.7660 179° South 451 519 37,100 240 Climbing FlightAware ADS-B
01:45PM 47.3338 -125.7630 179° South 450 518 37,200 240 Climbing FlightAware ADS-B
01:45PM 47.2705 -125.7610 179° South 452 520 37,400 480 Climbing FlightAware ADS-B
01:46PM 47.2070 -125.7600 180° South 452 520 37,700 480 Climbing FlightAware ADS-B
01:46PM 47.1426 -125.7590 179° South 453 521 37,900 480 Climbing FlightAware ADS-B
01:47PM 47.0765 -125.7570 179° South 453 521 38,200 480 Climbing FlightAware ADS-B
01:47PM 47.0129 -125.7550 179° South 452 520 38,400 480 Climbing FlightAware ADS-B
01:48PM 46.9504 -125.7540 179° South 450 518 38,700 480 Climbing FlightAware ADS-B
01:48PM 46.8856 -125.7530 179° South 449 517 38,900 360 Climbing FlightAware ADS-B
01:49PM 46.8218 -125.7520 179° South 448 516 39,100 360 Climbing FlightAware ADS-B
01:49PM 46.7529 -125.7510 181° South 445 512 39,300 420 Climbing FlightAware ADS-B
01:50PM 46.7076 -125.7590 195° South 433 498 39,500 420 Climbing FlightAware ADS-B
01:50PM 46.6800 -125.7790 206° Southwest 426 490 39,600 240 Climbing FlightAware ADS-B
01:50PM 46.6399 -125.8280 219° Southwest 417 480 39,700 180 Climbing FlightAware ADS-B
01:51PM 46.5967 -125.8860 223° Southwest 415 478 39,800 60 Climbing FlightAware ADS-B
01:51PM 46.5535 -125.9440 223° Southwest 415 478 39,800  Level FlightAware ADS-B
01:52PM 46.5020 -126.0130 223° Southwest 416 479 39,800 -720 Level FlightAware ADS-B
01:55PM 46.2265 -126.3830 229° Southwest 425 489 37,200 -900 Descending FlightAware ADS-B
01:56PM 46.2100 -126.4331 229° Southwest 426 490 36,500 -1,260 Descending Seattle Center
01:57PM 46.2022 -126.5969 266° West 415 478 35,300  Descending Seattle Center
01:58PM 46.1881 -126.8036 264° West 428 493 36,500 780 Climbing Seattle Center
01:59PM 46.1775 -126.9597 264° West 435 501 37,000 -120 Climbing Seattle Center
02:05PM 46.8353 -126.5150 50° Northeast 499 574 35,700 -360 Descending FlightAware ADS-B
02:05PM 46.8650 -126.4060 68° East 518 596 34,700 240 Descending FlightAware ADS-B
02:06PM 46.8931 -126.3020 69° East 498 573 36,000 480 Climbing FlightAware ADS-B
02:06PM 46.9240 -126.1860 69° East 523 602 35,300 -540 Descending FlightAware ADS-B
02:07PM 46.9440 -126.1114 69° East 531 611 35,500 540 Climbing FlightAware ADS-B (CYVR)
02:07PM 46.9522 -126.0810 68° East 531 611 35,600 840 Climbing FlightAware ADS-B
02:07PM 46.9751 -125.9970 67° East 531 611 36,000 780 Climbing FlightAware ADS-B
02:07PM 46.9872 -125.9620 59° Northeast 530 610 36,100 720 Climbing FlightAware ADS-B
02:08PM 46.9951 -125.9460 54° Northeast 530 610 36,200 1,080 Climbing FlightAware ADS-B
02:08PM 47.0051 -125.9290 47° Northeast 528 608 36,300 1,080 Climbing FlightAware ADS-B
02:08PM 47.0082 -125.9251 43° Northeast 526 605 36,400 900 Climbing FlightAware ADS-B (CYVR)
02:08PM 47.0290 -125.9020 37° Northeast 523 602 36,500 1,200 Climbing FlightAware ADS-B
02:08PM 47.0269 -125.9039 30° Northeast 519 597 36,600 1,020 Climbing FlightAware ADS-B (CYVR)
02:08PM 47.1174 -125.8740 North 498 573 37,200 960 Climbing FlightAware ADS-B
02:09PM 47.2012 -125.8690 North 493 567 37,800 540 Climbing FlightAware ADS-B
02:10PM 47.2796 -125.8640 North 494 568 37,900  Climbing FlightAware ADS-B
02:10PM 47.3055 -125.8619 North 501 577 37,800 -3,120 Descending FlightAware ADS-B (CYVR)
02:11PM 47.3958 -125.8230 25° Northeast 490 564 35,100 -4,200 Descending FlightAware ADS-B
02:11PM 47.4093 -125.8040 42° Northeast 493 567 34,300 -6,000 Descending FlightAware ADS-B
02:11PM 47.4223 -125.7772 59° Northeast 495 570 33,200 -5,220 Descending FlightAware ADS-B (CYVR)
02:11PM 47.4358 -125.7150 83° East 479 551 31,800 -4,380 Descending FlightAware ADS-B
02:11PM 47.4354 -125.6820 92° East 469 540 31,100 -4,020 Descending FlightAware ADS-B
02:11PM 47.4351 -125.6786 94° East 468 539 31,000 -6,000 Descending FlightAware ADS-B (CYVR)
02:11PM 47.4338 -125.6690 101° East 463 533 30,700 -4,800 Descending FlightAware ADS-B
02:11PM 47.4330 -125.6632 105° East 460 529 30,600 -5,400 Descending FlightAware ADS-B (CYVR)
02:12PM 47.4280 -125.6390 109° East 458 527 29,800 -6,540 Descending FlightAware ADS-B
02:12PM 47.3959 -125.5770 143° Southeast 440 506 26,900 -6,720 Descending FlightAware ADS-B
02:12PM 47.3509 -125.5430 156° South 435 501 24,100 -3,480 Descending FlightAware ADS-B
02:13PM 47.2734 -125.5120 156° South 433 498 23,000 -360 Descending FlightAware ADS-B
02:16PM 47.0181 -125.5510 186° South 391 450 23,000  Level FlightAware ADS-B
02:16PM 46.9551 -125.5630 186° South 392 451 23,000  Level FlightAware ADS-B
02:16PM 46.9466 -125.5680 199° South 390 449 23,000 -720 Level FlightAware ADS-B
02:17PM 46.9281 -125.6340 212° Southwest 388 447 22,600 -720 Descending FlightAware ADS-B
02:17PM 46.9304 -125.6420 293° West 399 459 22,600 60 Level FlightAware ADS-B
02:18PM 46.9720 -125.7800 294° West 393 452 22,700 60 Climbing FlightAware ADS-B
02:18PM 46.9869 -125.8260 299° West 404 465 22,700  Level FlightAware ADS-B
02:23PM 47.4965 -125.7610 56° Northeast 506 582 22,700  Level FlightAware ADS-B
02:24PM 47.5080 -125.7310 62° Northeast 504 580 22,700 -1,200 Level FlightAware ADS-B
02:24PM 47.5058 -125.6320 62° Northeast 504 580 21,900 -1,380 Descending FlightAware ADS-B
02:24PM 47.5013 -125.6250 136° Southeast 464 534 21,900 1,080 Level FlightAware ADS-B
02:24PM 47.4820 -125.5982 137° Southeast 441 507 22,200 900 Climbing FlightAware ADS-B (CYVR)
02:25PM 47.4349 -125.5330 138° Southeast 453 521 22,600 240 Climbing FlightAware ADS-B
02:25PM 47.3843 -125.4670 139° Southeast 463 533 22,500 -1,860 Descending FlightAware ADS-B
02:26PM 47.2790 -125.4430 163° South 454 522 19,900 -3,000 Descending FlightAware ADS-B
02:26PM 47.2710 -125.4480 199° South 399 459 19,500 -4,380 Descending FlightAware ADS-B
02:27PM 47.2186 -125.4856 199° South 402 463 16,500 180 Descending Seattle Center
02:33PM 47.7085 -125.7050 87° East 431 496 21,000 720 Climbing FlightAware ADS-B
02:33PM 47.7083 -125.6940 92° East 428 493 21,100 2,400 Climbing FlightAware ADS-B
02:34PM 47.7077 -125.6859 102° East 424 488 21,400 2,640 Climbing FlightAware ADS-B (CYVR)
02:34PM 47.7052 -125.6690 105° East 422 486 21,500 2,400 Climbing FlightAware ADS-B
02:34PM 47.6998 -125.6490 114° Southeast 418 481 21,800 2,520 Climbing FlightAware ADS-B
02:34PM 47.6692 -125.5770 123° Southeast 413 475 23,100 2,700 Climbing FlightAware ADS-B
02:35PM 47.6382 -125.5050 123° Southeast 407 468 24,600 2,820 Climbing FlightAware ADS-B
02:35PM 47.6284 -125.4826 123° Southeast 407 468 25,000 2,340 Climbing FlightAware ADS-B (CYVR)
02:35PM 47.6052 -125.4290 122° Southeast 406 467 25,900 2,520 Climbing FlightAware ADS-B
02:36PM 47.5813 -125.3720 124° Southeast 398 458 27,000 2,580 Climbing FlightAware ADS-B
02:36PM 47.5742 -125.3590 130° Southeast 394 453 27,200 1,680 Climbing FlightAware ADS-B
02:36PM 47.5633 -125.3450 141° Southeast 388 447 27,400 1,080 Climbing FlightAware ADS-B
02:36PM 47.5508 -125.3340 154° Southeast 382 440 27,500 1,200 Climbing FlightAware ADS-B
02:36PM 47.5392 -125.3280 165° South 376 433 27,700 1,320 Climbing FlightAware ADS-B
02:36PM 47.5358 -125.3272 169° South 374 430 27,700 1,320 Level FlightAware ADS-B (CYVR)
02:36PM 47.5238 -125.3260 177° South 372 428 27,900 1,080 Climbing FlightAware ADS-B
02:36PM 47.5186 -125.3254 180° South 371 427 27,900 1,500 Level FlightAware ADS-B (CYVR)
02:37PM 47.4766 -125.3290 187° South 369 425 28,600 1,500 Climbing FlightAware ADS-B
02:37PM 47.4494 -125.3346 187° South 375 432 28,900 900 Climbing FlightAware ADS-B (CYVR)
02:37PM 47.4223 -125.3400 187° South 381 438 29,100 600 Climbing FlightAware ADS-B
02:38PM 47.3685 -125.3490 187° South 394 453 29,400 840 Climbing FlightAware ADS-B
02:38PM 47.3240 -125.3570 187° South 399 459 29,900 1,260 Climbing FlightAware ADS-B
02:38PM 47.3095 -125.3600 190° South 398 458 30,100 1,260 Climbing FlightAware ADS-B
02:39PM 47.2554 -125.3790 194° South 403 464 30,700 1,200 Climbing FlightAware ADS-B
02:39PM 47.1892 -125.4040 194° South 407 468 31,500 1,200 Climbing FlightAware ADS-B
02:40PM 47.1326 -125.4240 194° South 411 473 32,100 1,140 Climbing FlightAware ADS-B
02:40PM 47.1308 -125.4247 194° South 402 463 32,100 540 Level FlightAware ADS-B (CYVR)
02:40PM 47.0763 -125.4440 194° South 418 481 32,400 780 Climbing FlightAware ADS-B
02:41PM 47.0173 -125.4660 194° South 424 488 32,900 960 Climbing FlightAware ADS-B
02:41PM 46.9592 -125.4870 194° South 428 493 33,400 960 Climbing FlightAware ADS-B
02:42PM 46.9013 -125.5080 193° South 433 498 33,900 660 Climbing FlightAware ADS-B
02:42PM 46.8763 -125.5190 200° South 433 498 33,900 240 Level FlightAware ADS-B
02:42PM 46.8618 -125.5290 210° Southwest 432 497 34,000 300 Climbing FlightAware ADS-B
02:43PM 46.8452 -125.5490 225° Southwest 431 496 34,000  Level FlightAware ADS-B
02:43PM 46.8401 -125.5580 231° Southwest 431 496 34,000  Level FlightAware ADS-B
02:43PM 46.8317 -125.5780 242° Southwest 433 498 34,000  Level FlightAware ADS-B
02:43PM 46.8235 -125.6360 267° West 442 509 34,000  Level FlightAware ADS-B
02:43PM 46.8253 -125.6570 280° West 449 517 34,000  Level FlightAware ADS-B
02:43PM 46.8302 -125.6790 290° West 457 526 34,000  Level FlightAware ADS-B
02:43PM 46.8396 -125.7050 302° West 468 539 34,000  Level FlightAware ADS-B
02:44PM 46.8505 -125.7240 313° West 478 550 34,000 -360 Level FlightAware ADS-B
02:44PM 46.8660 -125.7430 324° Northwest 489 563 33,900 -360 Descending FlightAware ADS-B
02:44PM 46.8824 -125.7560 334° Northwest 500 575 33,900  Level FlightAware ADS-B
02:44PM 46.8929 -125.7620 340° North 506 582 33,900 -480 Level FlightAware ADS-B
02:44PM 46.9132 -125.7690 351° North 519 597 33,800 -360 Descending FlightAware ADS-B
02:44PM 46.9380 -125.7700 North 530 610 33,800 -420 Level FlightAware ADS-B
02:44PM 46.9478 -125.7694 North 535 616 33,700 -480 Descending FlightAware ADS-B (CYVR)
02:44PM 46.9715 -125.7650 North 539 620 33,700 -180 Level FlightAware ADS-B
02:45PM 47.0472 -125.7480 North 543 625 33,600 -120 Descending FlightAware ADS-B
02:46PM 47.1242 -125.7310 North 543 625 33,600 -540 Level FlightAware ADS-B
02:46PM 47.1924 -125.7163 North 546 628 33,100 -1,140 Descending FlightAware ADS-B (CYVR)
02:46PM 47.2059 -125.7130 North 545 627 33,000 1,200 Descending FlightAware ADS-B
02:47PM 47.2801 -125.6970 11° North 535 616 33,800 1,140 Climbing FlightAware ADS-B
02:47PM 47.2940 -125.6920 15° North 537 618 33,700 -300 Descending FlightAware ADS-B
02:47PM 47.3340 -125.6640 29° Northeast 542 624 33,700 -300 Level FlightAware ADS-B
02:47PM 47.3405 -125.6570 37° Northeast 545 627 33,600 -600 Descending FlightAware ADS-B
02:47PM 47.3552 -125.6370 46° Northeast 547 629 33,600  Level FlightAware ADS-B
02:47PM 47.3709 -125.6060 57° Northeast 547 629 33,600  Level FlightAware ADS-B
02:48PM 47.3832 -125.5660 67° East 546 628 33,600  Level FlightAware ADS-B
02:48PM 47.3829 -125.5672 72° East 546 628 33,600  Level FlightAware ADS-B (CYVR)
02:48PM 47.3862 -125.5490 76° East 545 627 33,600  Level FlightAware ADS-B
02:48PM 47.3876 -125.5380 79° East 544 626 33,600  Level FlightAware ADS-B
02:48PM 47.3892 -125.5130 87° East 542 624 33,600  Level FlightAware ADS-B
02:48PM 47.3888 -125.4910 94° East 539 620 33,600  Level FlightAware ADS-B
02:48PM 47.3861 -125.4660 102° East 536 617 33,600  Level FlightAware ADS-B
02:48PM 47.3883 -125.4849 104° East 535 616 33,600  Level FlightAware ADS-B (CYVR)
02:48PM 47.3821 -125.4460 108° East 533 613 33,600  Level FlightAware ADS-B
02:48PM 47.3655 -125.3922 117° Southeast 529 609 33,600  Level FlightAware ADS-B (CYVR)
02:49PM 47.3506 -125.3490 116° Southeast 530 610 33,600 -420 Level FlightAware ADS-B
02:49PM 47.3162 -125.2450 116° Southeast 538 619 33,300 -540 Descending FlightAware ADS-B
02:49PM 47.3131 -125.2358 116° Southeast 535 616 33,300 -1,020 Level FlightAware ADS-B (CYVR)
02:50PM 47.2837 -125.1470 116° Southeast 518 596 32,800 -780 Descending FlightAware ADS-B
02:50PM 47.2779 -125.1293 116° Southeast 514 592 32,900 600 Climbing FlightAware ADS-B (CYVR)
02:50PM 47.2534 -125.0530 115° Southeast 507 583 33,100 120 Climbing FlightAware ADS-B
02:50PM 47.2434 -125.0210 112° Southeast 510 587 33,000 -540 Descending FlightAware ADS-B
02:50PM 47.2450 -125.0264 114° Southeast 509 586 33,000  Level FlightAware ADS-B (CYVR)
02:50PM 47.2379 -124.9980 107° East 516 594 33,000  Level FlightAware ADS-B
02:50PM 47.2351 -124.9810 102° East 519 597 33,000  Level FlightAware ADS-B
02:51PM 47.2335 -124.9670 98° East 524 603 33,000  Level FlightAware ADS-B
02:51PM 47.2326 -124.9480 92° East 527 606 33,000  Level FlightAware ADS-B
02:51PM 47.2330 -124.9300 86° East 531 611 33,000  Level FlightAware ADS-B
02:51PM 47.2342 -124.9160 82° East 534 615 33,000  Level FlightAware ADS-B
02:51PM 47.2362 -124.9020 77° East 537 618 33,000  Level FlightAware ADS-B
02:51PM 47.2401 -124.8830 71° East 538 619 33,000  Level FlightAware ADS-B
02:51PM 47.2413 -124.8780 63° Northeast 540 621 33,000  Level FlightAware ADS-B (CYVR)
02:51PM 47.2506 -124.8500 60° Northeast 540 621 33,000  Level FlightAware ADS-B
02:51PM 47.2652 -124.8220 50° Northeast 541 623 33,000  Level FlightAware ADS-B
02:51PM 47.2790 -124.8020 41° Northeast 540 621 33,000  Level FlightAware ADS-B
02:52PM 47.2958 -124.7850 32° Northeast 539 620 33,000  Level FlightAware ADS-B
02:52PM 47.3161 -124.7720 22° Northeast 536 617 33,000  Level FlightAware ADS-B
02:52PM 47.2825 -124.7983 21° North 535 616 33,000  Level FlightAware ADS-B (CYVR)
02:52PM 47.3326 -124.7640 14° North 532 612 33,000  Level FlightAware ADS-B
02:52PM 47.3605 -124.7565 North 531 611 33,000  Level FlightAware ADS-B (CYVR)
02:52PM 47.4060 -124.7460 North 528 608 33,000  Level FlightAware ADS-B
02:52PM 47.4127 -124.7445 10° North 527 606 33,000  Level FlightAware ADS-B (CYVR)
02:53PM 47.4435 -124.7370 11° North 528 608 33,000  Level FlightAware ADS-B
02:53PM 47.4707 -124.7260 20° North 531 611 33,000  Level FlightAware ADS-B
02:53PM 47.4936 -124.7090 30° Northeast 535 616 33,000  Level FlightAware ADS-B
02:53PM 47.5057 -124.6960 37° Northeast 534 615 33,000  Level FlightAware ADS-B
02:53PM 47.5186 -124.6780 46° Northeast 533 613 33,000  Level FlightAware ADS-B
02:53PM 47.5316 -124.6520 57° Northeast 530 610 33,000  Level FlightAware ADS-B
02:53PM 47.3605 -124.7565 63° Northeast 528 608 33,000  Level FlightAware ADS-B (CYVR)
02:53PM 47.5399 -124.6270 66° East 527 606 33,000  Level FlightAware ADS-B
02:54PM 47.5538 -124.5650 76° East 522 601 33,000  Level FlightAware ADS-B
02:54PM 47.5580 -124.5300 83° East 518 596 33,000  Level FlightAware ADS-B
02:54PM 47.5589 -124.5070 88° East 515 593 33,000  Level FlightAware ADS-B
02:54PM 47.5584 -124.4840 94° East 511 588 33,000  Level FlightAware ADS-B
02:54PM 47.5566 -124.4630 99° East 507 583 33,000  Level FlightAware ADS-B
02:54PM 47.5523 -124.4360 106° East 502 578 33,000  Level FlightAware ADS-B
02:54PM 47.5482 -124.4190 111° Southeast 498 573 33,000  Level FlightAware ADS-B
02:55PM 47.5420 -124.3990 116° Southeast 495 570 33,000  Level FlightAware ADS-B
02:55PM 47.5103 -124.3090 118° Southeast 495 570 33,000 -720 Level FlightAware ADS-B
02:56PM 47.4769 -124.2180 119° Southeast 501 577 32,300 -2,100 Descending FlightAware ADS-B
02:56PM 47.4431 -124.1290 119° Southeast 495 570 30,900 -2,400 Descending FlightAware ADS-B
02:57PM 47.4099 -124.0410 119° Southeast 482 555 29,900 -1,980 Descending FlightAware ADS-B
02:57PM 47.4267 -124.0855 119° Southeast 479 551 29,700 -2,220 Descending FlightAware ADS-B (CYVR)
02:57PM 47.3775 -123.9560 119° Southeast 468 539 28,800 -2,280 Descending FlightAware ADS-B
02:57PM 47.3792 -123.9607 119° Southeast 468 539 28,400 -2,400 Descending FlightAware ADS-B (CYWH)
02:58PM 47.3461 -123.8740 119° Southeast 457 526 27,600 -2,400 Descending FlightAware ADS-B
02:58PM 47.3303 -123.8327 119° Southeast 449 517 27,000 -2,220 Descending FlightAware ADS-B (CYVR)
02:58PM 47.3125 -123.7860 119° Southeast 442 509 26,400 -2,100 Descending FlightAware ADS-B
02:58PM 47.3046 -123.7653 119° Southeast 437 503 25,900 -1,620 Descending FlightAware ADS-B (CYVR)
02:59PM 47.2826 -123.7080 119° Southeast 434 499 25,600 -1,560 Descending FlightAware ADS-B
02:59PM 47.2706 -123.6761 119° Southeast 434 499 25,100 -1,980 Descending FlightAware ADS-B (CYWH)
02:59PM 47.2526 -123.6290 119° Southeast 431 496 24,600 -1,920 Descending FlightAware ADS-B
03:00PM 47.2313 -123.5735 119° Southeast 423 487 23,900 -1,800 Descending FlightAware ADS-B (CYVR)
03:00PM 47.2224 -123.5500 119° Southeast 422 486 23,700 -1,920 Descending FlightAware ADS-B
03:00PM 47.2002 -123.4921 119° Southeast 415 478 22,900 -2,040 Descending FlightAware ADS-B (CYVR)
03:00PM 47.1939 -123.4750 119° Southeast 413 475 22,700 -1,800 Descending FlightAware ADS-B
03:01PM 47.1750 -123.4261 119° Southeast 406 467 22,000 -1,800 Descending FlightAware ADS-B (CYVR)
03:01PM 47.1660 -123.4030 119° Southeast 406 467 21,800 -1,800 Descending FlightAware ADS-B
03:01PM 47.1387 -123.3320 119° Southeast 399 459 20,900 -1,920 Descending FlightAware ADS-B
03:01PM 47.1363 -123.3255 120° Southeast 399 459 20,800 -1,800 Descending FlightAware ADS-B (CYVR)
03:02PM 47.1110 -123.2600 120° Southeast 400 460 20,000 -1,800 Descending FlightAware ADS-B
03:02PM 47.1110 -123.2601 120° Southeast 401 461 19,900 -1,800 Descending FlightAware ADS-B (CYVR)
03:02PM 47.0834 -123.1890 120° Southeast 400 460 19,100 -1,800 Descending FlightAware ADS-B
03:03PM 47.0821 -123.1857 120° Southeast 400 460 18,500 -1,680 Descending FlightAware ADS-B (CYVR)
03:03PM 47.0511 -123.1060 119° Southeast 397 457 18,100 -1,680 Descending FlightAware ADS-B
03:03PM 47.0427 -123.0810 114° Southeast 400 460 17,800 -1,680 Descending FlightAware ADS-B
03:03PM 47.0374 -123.0600 107° East 400 460 17,600 -1,200 Descending FlightAware ADS-B
03:03PM 47.0345 -123.0430 103° East 400 460 17,500 -960 Descending FlightAware ADS-B
03:03PM 47.0326 -123.0260 96° East 398 458 17,400 -1,140 Descending FlightAware ADS-B
03:03PM 47.0321 -123.0120 91° East 398 458 17,300 -720 Descending FlightAware ADS-B
03:03PM 47.0323 -123.0020 87° East 397 457 17,300 -840 Level FlightAware ADS-B
03:04PM 47.0354 -122.9740 76° East 395 455 17,100 -1,080 Descending FlightAware ADS-B
03:04PM 47.0389 -122.9580 69° East 394 453 17,000 -600 Descending FlightAware ADS-B
03:04PM 47.0424 -122.9470 64° Northeast 392 451 17,000 -720 Level FlightAware ADS-B
03:04PM 47.0468 -122.9360 58° Northeast 390 449 16,900 -1,200 Descending FlightAware ADS-B
03:04PM 47.0511 -122.9270 54° Northeast 389 448 16,800 -1,380 Descending FlightAware ADS-B
03:04PM 47.0845 -122.8670 51° Northeast 371 427 16,100 -2,340 Descending FlightAware ADS-B
03:05PM 47.1173 -122.8080 51° Northeast 367 422 14,500 -2,520 Descending FlightAware ADS-B
03:05PM 47.1486 -122.7520 50° Northeast 342 394 13,600 -1,800 Descending FlightAware ADS-B
03:06PM 47.1782 -122.6990 51° Northeast 320 368 12,700 -1,680 Descending FlightAware ADS-B
03:06PM 47.2050 -122.6510 51° Northeast 293 337 11,900 -1,560 Descending FlightAware ADS-B
03:07PM 47.2091 -122.6440 51° Northeast 290 334 11,800 -2,040 Descending FlightAware ADS-B (CYVR)
03:07PM 47.2305 -122.6050 51° Northeast 283 326 10,900 -2,280 Descending FlightAware ADS-B
03:07PM 47.2496 -122.5710 51° Northeast 281 323 10,000 -2,520 Descending FlightAware ADS-B
03:08PM 47.2626 -122.5480 51° Northeast 282 325 9,300 -2,340 Descending FlightAware ADS-B
03:08PM 47.2751 -122.5250 51° Northeast 281 323 8,800 -2,040 Descending FlightAware ADS-B
03:08PM 47.2877 -122.5020 51° Northeast 279 321 8,300 -1,200 Descending FlightAware ADS-B
03:08PM 47.3003 -122.4800 51° Northeast 279 321 8,200 -240 Descending FlightAware ADS-B
03:09PM 47.3076 -122.4670 47° Northeast 288 331 8,200 -540 Level FlightAware ADS-B
03:09PM 47.3111 -122.4620 43° Northeast 291 335 8,100 -1,020 Descending FlightAware ADS-B
03:09PM 47.3143 -122.4580 36° Northeast 293 337 8,100  Level FlightAware ADS-B
03:09PM 47.3177 -122.4550 31° Northeast 293 337 8,100  Level FlightAware ADS-B
03:09PM 47.3244 -122.4510 23° Northeast 293 337 8,100  Level FlightAware ADS-B
03:09PM 47.3286 -122.4490 15° North 292 336 8,100  Level FlightAware ADS-B
03:09PM 47.3358 -122.4470 North 291 335 8,100  Level FlightAware ADS-B
03:09PM 47.3570 -122.4450 North 286 329 8,100 -600 Level FlightAware ADS-B
03:09PM 47.3765 -122.4430 North 284 327 7,800 -1,200 Descending FlightAware ADS-B
03:10PM 47.3972 -122.4420 North 283 326 7,500 -1,200 Descending FlightAware ADS-B
03:10PM 47.4170 -122.4400 North 281 323 7,200 -1,440 Descending FlightAware ADS-B
03:10PM 47.4370 -122.4390 North 279 321 6,800 -1,620 Descending FlightAware ADS-B
03:10PM 47.4510 -122.4380 North 275 316 6,500 -2,100 Descending FlightAware ADS-B
03:11PM 47.4662 -122.4370 North 275 316 6,000 -2,400 Descending FlightAware ADS-B
03:11PM 47.4858 -122.4360 North 274 315 5,400 -2,340 Descending FlightAware ADS-B
03:11PM 47.5048 -122.4360 North 274 315 4,800 -2,340 Descending FlightAware ADS-B
03:11PM 47.5192 -122.4350 North 273 314 4,400 -2,160 Descending FlightAware ADS-B
03:11PM 47.5230 -122.4350 359° North 272 313 4,300 -1,500 Descending FlightAware ADS-B
03:11PM 47.5285 -122.4360 354° North 269 310 4,200 -2,040 Descending FlightAware ADS-B
03:11PM 47.5337 -122.4370 351° North 267 307 4,000 -2,400 Descending FlightAware ADS-B
03:12PM 47.5411 -122.4390 348° North 265 305 3,800 -2,040 Descending FlightAware ADS-B
03:12PM 47.5551 -122.4440 344° North 265 305 3,400 -2,340 Descending FlightAware ADS-B
03:12PM 47.5624 -122.4480 344° North 265 305 3,100 -2,220 Descending FlightAware ADS-B
03:12PM 47.5808 -122.4560 342° North 268 308 2,600 -1,200 Descending FlightAware ADS-B
03:13PM 47.6109 -122.4700 348° North 267 307 2,300 -660 Descending FlightAware ADS-B
03:13PM 47.6152 -122.4710 352° North 267 307 2,300  Level FlightAware ADS-B
03:13PM 47.6442 -122.4590 36° Northeast 263 303 2,300 -120 Level FlightAware ADS-B
03:14PM 47.6545 -122.4180 71° East 237 273 2,200 -300 Descending FlightAware ADS-B
03:14PM 47.6468 -122.4020 71° East 237 273 2,100 -240 Descending FlightAware ADS-B
03:14PM 47.6413 -122.3960 148° Southeast 157 181 2,100  Level FlightAware ADS-B
03:14PM 47.6361 -122.3920 150° Southeast 151 174 2,100  Level FlightAware ADS-B
03:14PM 47.6270 -122.3840 151° Southeast 145 167 2,100 -240 Level FlightAware ADS-B
03:15PM 47.6180 -122.3770 151° Southeast 140 161 2,000 -600 Descending FlightAware ADS-B
03:15PM 47.6093 -122.3690 151° Southeast 140 161 1,800 -720 Descending FlightAware ADS-B
03:15PM 47.5987 -122.3610 150° Southeast 140 161 1,600 -840 Descending FlightAware ADS-B
03:15PM 47.5882 -122.3520 151° Southeast 140 161 1,300 -900 Descending FlightAware ADS-B
03:17PM 47.5514 -122.3217 151° Southeast 157 181 300 -840 Descending Seattle Center
03:17PM 47.5444 -122.3142 144° Southeast 142 163 200 -180 Descending Seattle Center
03:18PM 47.5125 -122.2847 148° Southeast 142 163 100 -120 Descending Seattle Center